sensor_id;sensor_type;location;lat;lon;timestamp;P1;durP1;ratioP1;P2;durP2;ratioP2
33104;SDS011;19476;51.448;6.674;2023-07-13T00:01:48;1.73;;;0.60;;
33104;SDS011;19476;51.448;6.674;2023-07-13T00:04:15;1.30;;;0.60;;
33104;SDS011;19476;51.448;6.674;2023-07-13T00:06:43;2.33;;;0.70;;
33104;SDS011;19476;51.448;6.674;2023-07-13T00:09:13;2.53;;;0.73;;
33104;SDS011;19476;51.448;6.674;2023-07-13T00:11:40;1.50;;;0.73;;
33104;SDS011;19476;51.448;6.674;2023-07-13T00:14:06;1.55;;;0.77;;
33104;SDS011;19476;51.448;6.674;2023-07-13T00:16:36;0.73;;;0.55;;
33104;SDS011;19476;51.448;6.674;2023-07-13T00:19:03;1.33;;;0.80;;
33104;SDS011;19476;51.448;6.674;2023-07-13T00:21:29;3.25;;;0.80;;
33104;SDS011;19476;51.448;6.674;2023-07-13T00:23:55;2.35;;;0.60;;
33104;SDS011;19476;51.448;6.674;2023-07-13T00:26:21;1.15;;;0.60;;
33104;SDS011;19476;51.448;6.674;2023-07-13T00:38:57;1.55;;;0.50;;
33104;SDS011;19476;51.448;6.674;2023-07-13T00:41:23;2.58;;;0.70;;
33104;SDS011;19476;51.448;6.674;2023-07-13T00:43:48;1.92;;;0.68;;
33104;SDS011;19476;51.448;6.674;2023-07-13T00:48:45;3.22;;;0.80;;
33104;SDS011;19476;51.448;6.674;2023-07-13T00:51:13;3.58;;;0.88;;
33104;SDS011;19476;51.448;6.674;2023-07-13T00:53:42;1.52;;;0.70;;
33104;SDS011;19476;51.448;6.674;2023-07-13T00:56:09;2.42;;;0.80;;
33104;SDS011;19476;51.448;6.674;2023-07-13T00:58:35;1.73;;;0.50;;
33104;SDS011;19476;51.448;6.674;2023-07-13T01:01:01;2.42;;;0.65;;
33104;SDS011;19476;51.448;6.674;2023-07-13T01:03:27;4.05;;;0.88;;
33104;SDS011;19476;51.448;6.674;2023-07-13T01:05:54;2.20;;;0.80;;
33104;SDS011;19476;51.448;6.674;2023-07-13T01:08:20;3.28;;;0.65;;
33104;SDS011;19476;51.448;6.674;2023-07-13T01:10:53;2.35;;;0.80;;
33104;SDS011;19476;51.448;6.674;2023-07-13T01:13:20;2.28;;;0.70;;
33104;SDS011;19476;51.448;6.674;2023-07-13T01:15:47;2.38;;;0.73;;
33104;SDS011;19476;51.448;6.674;2023-07-13T01:18:26;2.25;;;0.68;;
33104;SDS011;19476;51.448;6.674;2023-07-13T01:20:54;1.50;;;0.80;;
33104;SDS011;19476;51.448;6.674;2023-07-13T01:23:22;2.20;;;0.50;;
33104;SDS011;19476;51.448;6.674;2023-07-13T01:25:49;2.58;;;0.70;;
33104;SDS011;19476;51.448;6.674;2023-07-13T01:28:15;2.10;;;0.88;;
33104;SDS011;19476;51.448;6.674;2023-07-13T01:30:42;2.45;;;0.70;;
33104;SDS011;19476;51.448;6.674;2023-07-13T01:33:14;2.88;;;1.05;;
33104;SDS011;19476;51.448;6.674;2023-07-13T01:35:41;2.15;;;0.50;;
33104;SDS011;19476;51.448;6.674;2023-07-13T01:38:08;1.98;;;0.50;;
33104;SDS011;19476;51.448;6.674;2023-07-13T01:40:35;2.35;;;0.70;;
33104;SDS011;19476;51.448;6.674;2023-07-13T01:43:02;4.28;;;1.00;;
33104;SDS011;19476;51.448;6.674;2023-07-13T01:45:28;3.00;;;0.90;;
33104;SDS011;19476;51.448;6.674;2023-07-13T01:47:54;0.88;;;0.47;;
33104;SDS011;19476;51.448;6.674;2023-07-13T01:50:20;2.22;;;0.50;;
33104;SDS011;19476;51.448;6.674;2023-07-13T01:52:45;2.15;;;0.70;;
33104;SDS011;19476;51.448;6.674;2023-07-13T01:55:11;1.55;;;0.60;;
33104;SDS011;19476;51.448;6.674;2023-07-13T01:57:37;3.33;;;0.68;;
33104;SDS011;19476;51.448;6.674;2023-07-13T02:00:04;3.05;;;0.75;;
33104;SDS011;19476;51.448;6.674;2023-07-13T02:02:31;2.65;;;0.60;;
33104;SDS011;19476;51.448;6.674;2023-07-13T02:04:56;3.50;;;0.95;;
33104;SDS011;19476;51.448;6.674;2023-07-13T02:07:22;1.15;;;0.55;;
33104;SDS011;19476;51.448;6.674;2023-07-13T02:09:48;1.35;;;0.70;;
33104;SDS011;19476;51.448;6.674;2023-07-13T02:12:14;1.60;;;0.77;;
33104;SDS011;19476;51.448;6.674;2023-07-13T02:14:40;3.78;;;0.70;;
33104;SDS011;19476;51.448;6.674;2023-07-13T02:17:06;1.63;;;0.70;;
33104;SDS011;19476;51.448;6.674;2023-07-13T02:19:31;1.40;;;0.68;;
33104;SDS011;19476;51.448;6.674;2023-07-13T02:21:57;3.10;;;0.70;;
33104;SDS011;19476;51.448;6.674;2023-07-13T02:24:23;1.92;;;0.70;;
33104;SDS011;19476;51.448;6.674;2023-07-13T02:26:49;4.18;;;0.90;;
33104;SDS011;19476;51.448;6.674;2023-07-13T02:29:15;2.75;;;0.88;;
33104;SDS011;19476;51.448;6.674;2023-07-13T02:31:40;2.38;;;0.98;;
33104;SDS011;19476;51.448;6.674;2023-07-13T02:34:06;1.83;;;0.70;;
33104;SDS011;19476;51.448;6.674;2023-07-13T02:36:32;2.08;;;0.80;;
33104;SDS011;19476;51.448;6.674;2023-07-13T02:39:00;5.22;;;1.02;;
33104;SDS011;19476;51.448;6.674;2023-07-13T02:41:27;2.55;;;0.65;;
33104;SDS011;19476;51.448;6.674;2023-07-13T02:43:54;1.13;;;0.60;;
33104;SDS011;19476;51.448;6.674;2023-07-13T02:46:32;2.03;;;0.60;;
33104;SDS011;19476;51.448;6.674;2023-07-13T02:48:59;1.73;;;0.63;;
33104;SDS011;19476;51.448;6.674;2023-07-13T02:51:25;2.53;;;0.60;;
33104;SDS011;19476;51.448;6.674;2023-07-13T02:53:51;4.57;;;1.05;;
33104;SDS011;19476;51.448;6.674;2023-07-13T02:56:19;1.30;;;0.63;;
33104;SDS011;19476;51.448;6.674;2023-07-13T02:58:48;3.40;;;1.00;;
33104;SDS011;19476;51.448;6.674;2023-07-13T03:01:14;2.72;;;0.90;;
33104;SDS011;19476;51.448;6.674;2023-07-13T03:03:44;3.17;;;0.85;;
33104;SDS011;19476;51.448;6.674;2023-07-13T03:06:11;1.95;;;0.80;;
33104;SDS011;19476;51.448;6.674;2023-07-13T03:08:37;1.33;;;0.70;;
33104;SDS011;19476;51.448;6.674;2023-07-13T03:11:12;2.88;;;0.95;;
33104;SDS011;19476;51.448;6.674;2023-07-13T03:13:40;4.07;;;1.05;;
33104;SDS011;19476;51.448;6.674;2023-07-13T03:16:06;2.08;;;0.90;;
33104;SDS011;19476;51.448;6.674;2023-07-13T03:18:33;1.90;;;0.57;;
33104;SDS011;19476;51.448;6.674;2023-07-13T03:21:00;3.33;;;0.88;;
33104;SDS011;19476;51.448;6.674;2023-07-13T03:23:26;2.38;;;0.80;;
33104;SDS011;19476;51.448;6.674;2023-07-13T03:26:02;3.75;;;0.80;;
33104;SDS011;19476;51.448;6.674;2023-07-13T03:28:34;2.70;;;0.80;;
33104;SDS011;19476;51.448;6.674;2023-07-13T03:31:05;1.55;;;0.70;;
33104;SDS011;19476;51.448;6.674;2023-07-13T03:33:33;2.17;;;0.75;;
33104;SDS011;19476;51.448;6.674;2023-07-13T03:35:59;2.70;;;0.63;;
33104;SDS011;19476;51.448;6.674;2023-07-13T03:38:25;2.50;;;0.80;;
33104;SDS011;19476;51.448;6.674;2023-07-13T03:40:51;3.58;;;0.82;;
33104;SDS011;19476;51.448;6.674;2023-07-13T03:43:18;2.42;;;0.82;;
33104;SDS011;19476;51.448;6.674;2023-07-13T03:45:45;5.20;;;0.88;;
33104;SDS011;19476;51.448;6.674;2023-07-13T03:48:11;4.32;;;0.75;;
33104;SDS011;19476;51.448;6.674;2023-07-13T03:50:37;4.00;;;0.80;;
33104;SDS011;19476;51.448;6.674;2023-07-13T03:53:03;1.95;;;0.77;;
33104;SDS011;19476;51.448;6.674;2023-07-13T03:55:29;3.22;;;0.90;;
33104;SDS011;19476;51.448;6.674;2023-07-13T03:57:59;1.40;;;0.70;;
33104;SDS011;19476;51.448;6.674;2023-07-13T04:00:45;3.22;;;0.90;;
33104;SDS011;19476;51.448;6.674;2023-07-13T04:03:11;2.63;;;0.63;;
33104;SDS011;19476;51.448;6.674;2023-07-13T04:05:37;1.83;;;0.60;;
33104;SDS011;19476;51.448;6.674;2023-07-13T04:08:06;2.10;;;1.02;;
33104;SDS011;19476;51.448;6.674;2023-07-13T04:10:31;2.17;;;0.90;;
33104;SDS011;19476;51.448;6.674;2023-07-13T04:12:57;2.70;;;1.13;;
33104;SDS011;19476;51.448;6.674;2023-07-13T04:15:23;4.43;;;1.10;;
33104;SDS011;19476;51.448;6.674;2023-07-13T04:17:49;3.00;;;0.88;;
33104;SDS011;19476;51.448;6.674;2023-07-13T04:20:15;2.00;;;0.90;;
33104;SDS011;19476;51.448;6.674;2023-07-13T04:22:41;3.90;;;1.10;;
33104;SDS011;19476;51.448;6.674;2023-07-13T04:25:07;3.22;;;0.90;;
33104;SDS011;19476;51.448;6.674;2023-07-13T04:27:33;2.25;;;0.75;;
33104;SDS011;19476;51.448;6.674;2023-07-13T04:29:59;3.53;;;0.93;;
33104;SDS011;19476;51.448;6.674;2023-07-13T04:32:24;3.53;;;1.13;;
33104;SDS011;19476;51.448;6.674;2023-07-13T04:34:50;2.65;;;1.00;;
33104;SDS011;19476;51.448;6.674;2023-07-13T04:37:18;3.58;;;0.75;;
33104;SDS011;19476;51.448;6.674;2023-07-13T04:39:45;2.40;;;0.68;;
33104;SDS011;19476;51.448;6.674;2023-07-13T04:42:10;2.30;;;0.73;;
33104;SDS011;19476;51.448;6.674;2023-07-13T04:44:36;3.20;;;0.80;;
33104;SDS011;19476;51.448;6.674;2023-07-13T04:47:02;4.20;;;1.42;;
33104;SDS011;19476;51.448;6.674;2023-07-13T04:49:28;5.38;;;1.08;;
33104;SDS011;19476;51.448;6.674;2023-07-13T04:51:54;2.35;;;0.70;;
33104;SDS011;19476;51.448;6.674;2023-07-13T04:54:20;3.03;;;0.85;;
33104;SDS011;19476;51.448;6.674;2023-07-13T04:56:47;3.28;;;0.95;;
33104;SDS011;19476;51.448;6.674;2023-07-13T04:59:13;2.53;;;1.00;;
33104;SDS011;19476;51.448;6.674;2023-07-13T05:01:38;2.47;;;0.90;;
33104;SDS011;19476;51.448;6.674;2023-07-13T05:04:05;2.15;;;1.00;;
33104;SDS011;19476;51.448;6.674;2023-07-13T05:06:32;4.30;;;1.08;;
33104;SDS011;19476;51.448;6.674;2023-07-13T05:08:58;3.75;;;1.02;;
33104;SDS011;19476;51.448;6.674;2023-07-13T05:11:23;2.55;;;0.70;;
33104;SDS011;19476;51.448;6.674;2023-07-13T05:13:49;5.05;;;1.08;;
33104;SDS011;19476;51.448;6.674;2023-07-13T05:16:15;2.20;;;1.08;;
33104;SDS011;19476;51.448;6.674;2023-07-13T05:18:41;4.10;;;1.00;;
33104;SDS011;19476;51.448;6.674;2023-07-13T05:21:07;3.03;;;1.00;;
33104;SDS011;19476;51.448;6.674;2023-07-13T05:23:35;2.45;;;0.98;;
33104;SDS011;19476;51.448;6.674;2023-07-13T05:26:02;3.60;;;1.30;;
33104;SDS011;19476;51.448;6.674;2023-07-13T05:28:29;4.95;;;1.48;;
33104;SDS011;19476;51.448;6.674;2023-07-13T05:30:56;5.05;;;0.93;;
33104;SDS011;19476;51.448;6.674;2023-07-13T05:33:22;6.35;;;1.48;;
33104;SDS011;19476;51.448;6.674;2023-07-13T05:35:49;4.60;;;1.08;;
33104;SDS011;19476;51.448;6.674;2023-07-13T05:38:15;3.80;;;1.10;;
33104;SDS011;19476;51.448;6.674;2023-07-13T05:40:42;5.82;;;1.67;;
33104;SDS011;19476;51.448;6.674;2023-07-13T05:43:09;5.05;;;1.27;;
33104;SDS011;19476;51.448;6.674;2023-07-13T05:45:35;3.65;;;1.05;;
33104;SDS011;19476;51.448;6.674;2023-07-13T05:48:00;4.63;;;1.23;;
33104;SDS011;19476;51.448;6.674;2023-07-13T05:50:26;3.80;;;1.15;;
33104;SDS011;19476;51.448;6.674;2023-07-13T05:52:52;4.55;;;1.05;;
33104;SDS011;19476;51.448;6.674;2023-07-13T05:55:19;5.68;;;1.52;;
33104;SDS011;19476;51.448;6.674;2023-07-13T05:57:45;3.58;;;1.38;;
33104;SDS011;19476;51.448;6.674;2023-07-13T06:00:12;4.95;;;1.38;;
33104;SDS011;19476;51.448;6.674;2023-07-13T06:02:38;4.50;;;1.30;;
33104;SDS011;19476;51.448;6.674;2023-07-13T06:05:04;4.13;;;1.33;;
33104;SDS011;19476;51.448;6.674;2023-07-13T06:07:30;3.83;;;0.98;;
33104;SDS011;19476;51.448;6.674;2023-07-13T06:09:56;5.10;;;1.45;;
33104;SDS011;19476;51.448;6.674;2023-07-13T06:12:22;7.28;;;1.77;;
33104;SDS011;19476;51.448;6.674;2023-07-13T06:14:48;5.28;;;1.50;;
33104;SDS011;19476;51.448;6.674;2023-07-13T06:17:13;4.13;;;1.17;;
33104;SDS011;19476;51.448;6.674;2023-07-13T06:19:39;5.35;;;1.38;;
33104;SDS011;19476;51.448;6.674;2023-07-13T06:22:05;4.45;;;1.33;;
33104;SDS011;19476;51.448;6.674;2023-07-13T06:24:31;3.50;;;1.45;;
33104;SDS011;19476;51.448;6.674;2023-07-13T06:26:57;3.33;;;1.33;;
33104;SDS011;19476;51.448;6.674;2023-07-13T06:29:22;4.88;;;1.40;;
33104;SDS011;19476;51.448;6.674;2023-07-13T06:31:48;7.10;;;1.50;;
33104;SDS011;19476;51.448;6.674;2023-07-13T06:34:14;3.15;;;1.50;;
33104;SDS011;19476;51.448;6.674;2023-07-13T06:36:39;5.68;;;1.65;;
33104;SDS011;19476;51.448;6.674;2023-07-13T06:39:06;7.30;;;1.67;;
33104;SDS011;19476;51.448;6.674;2023-07-13T06:41:32;4.75;;;1.67;;
33104;SDS011;19476;51.448;6.674;2023-07-13T06:43:59;6.45;;;1.90;;
33104;SDS011;19476;51.448;6.674;2023-07-13T06:46:24;4.57;;;1.80;;
33104;SDS011;19476;51.448;6.674;2023-07-13T06:48:51;4.32;;;1.58;;
33104;SDS011;19476;51.448;6.674;2023-07-13T06:51:16;4.15;;;1.98;;
33104;SDS011;19476;51.448;6.674;2023-07-13T06:53:42;6.00;;;1.88;;
33104;SDS011;19476;51.448;6.674;2023-07-13T06:56:09;4.15;;;1.80;;
33104;SDS011;19476;51.448;6.674;2023-07-13T06:58:35;3.75;;;1.52;;
33104;SDS011;19476;51.448;6.674;2023-07-13T07:01:02;6.65;;;1.77;;
33104;SDS011;19476;51.448;6.674;2023-07-13T07:03:28;7.00;;;1.75;;
33104;SDS011;19476;51.448;6.674;2023-07-13T07:05:59;6.60;;;2.10;;
33104;SDS011;19476;51.448;6.674;2023-07-13T07:08:26;5.53;;;2.20;;
33104;SDS011;19476;51.448;6.674;2023-07-13T07:10:51;7.82;;;1.95;;
33104;SDS011;19476;51.448;6.674;2023-07-13T07:13:19;5.53;;;1.88;;
33104;SDS011;19476;51.448;6.674;2023-07-13T07:15:46;4.25;;;1.92;;
33104;SDS011;19476;51.448;6.674;2023-07-13T07:18:12;6.05;;;2.00;;
33104;SDS011;19476;51.448;6.674;2023-07-13T07:20:37;3.65;;;1.80;;
33104;SDS011;19476;51.448;6.674;2023-07-13T07:23:03;5.10;;;1.98;;
33104;SDS011;19476;51.448;6.674;2023-07-13T07:25:29;5.78;;;2.03;;
33104;SDS011;19476;51.448;6.674;2023-07-13T07:27:57;5.35;;;2.10;;
33104;SDS011;19476;51.448;6.674;2023-07-13T07:30:24;3.53;;;1.80;;
33104;SDS011;19476;51.448;6.674;2023-07-13T07:32:49;5.50;;;2.08;;
33104;SDS011;19476;51.448;6.674;2023-07-13T07:35:15;5.30;;;2.15;;
33104;SDS011;19476;51.448;6.674;2023-07-13T07:37:41;7.82;;;2.00;;
33104;SDS011;19476;51.448;6.674;2023-07-13T07:40:07;6.18;;;2.08;;
33104;SDS011;19476;51.448;6.674;2023-07-13T07:42:33;3.92;;;2.00;;
33104;SDS011;19476;51.448;6.674;2023-07-13T07:44:59;4.40;;;2.00;;
33104;SDS011;19476;51.448;6.674;2023-07-13T07:47:26;7.15;;;1.88;;
33104;SDS011;19476;51.448;6.674;2023-07-13T07:49:52;3.58;;;1.90;;
33104;SDS011;19476;51.448;6.674;2023-07-13T07:52:18;7.25;;;2.42;;
33104;SDS011;19476;51.448;6.674;2023-07-13T07:54:43;6.10;;;2.00;;
33104;SDS011;19476;51.448;6.674;2023-07-13T07:57:09;6.88;;;2.10;;
33104;SDS011;19476;51.448;6.674;2023-07-13T07:59:36;4.45;;;2.13;;
33104;SDS011;19476;51.448;6.674;2023-07-13T08:02:02;4.32;;;2.28;;
33104;SDS011;19476;51.448;6.674;2023-07-13T08:04:28;5.25;;;1.92;;
33104;SDS011;19476;51.448;6.674;2023-07-13T08:06:55;4.63;;;1.85;;
33104;SDS011;19476;51.448;6.674;2023-07-13T08:09:23;3.90;;;1.80;;
33104;SDS011;19476;51.448;6.674;2023-07-13T08:11:49;5.90;;;2.17;;
33104;SDS011;19476;51.448;6.674;2023-07-13T08:14:16;6.88;;;2.28;;
33104;SDS011;19476;51.448;6.674;2023-07-13T08:16:42;7.13;;;2.17;;
33104;SDS011;19476;51.448;6.674;2023-07-13T08:19:08;4.55;;;1.75;;
33104;SDS011;19476;51.448;6.674;2023-07-13T08:21:33;6.38;;;2.20;;
33104;SDS011;19476;51.448;6.674;2023-07-13T08:23:59;5.43;;;2.20;;
33104;SDS011;19476;51.448;6.674;2023-07-13T08:26:25;6.03;;;2.55;;
33104;SDS011;19476;51.448;6.674;2023-07-13T08:28:51;5.07;;;2.28;;
33104;SDS011;19476;51.448;6.674;2023-07-13T08:31:16;4.82;;;2.20;;
33104;SDS011;19476;51.448;6.674;2023-07-13T08:33:42;6.70;;;2.42;;
33104;SDS011;19476;51.448;6.674;2023-07-13T08:36:08;4.95;;;2.10;;
33104;SDS011;19476;51.448;6.674;2023-07-13T08:38:34;9.70;;;3.10;;
33104;SDS011;19476;51.448;6.674;2023-07-13T08:41:00;5.07;;;2.40;;
33104;SDS011;19476;51.448;6.674;2023-07-13T08:43:35;5.53;;;2.30;;
33104;SDS011;19476;51.448;6.674;2023-07-13T08:46:08;4.25;;;1.95;;
33104;SDS011;19476;51.448;6.674;2023-07-13T08:48:53;5.45;;;2.10;;
33104;SDS011;19476;51.448;6.674;2023-07-13T08:54:04;8.50;;;2.13;;
33104;SDS011;19476;51.448;6.674;2023-07-13T08:56:52;2.72;;;1.55;;
33104;SDS011;19476;51.448;6.674;2023-07-13T08:59:21;6.78;;;2.25;;
33104;SDS011;19476;51.448;6.674;2023-07-13T09:05:01;2.58;;;1.35;;
33104;SDS011;19476;51.448;6.674;2023-07-13T09:07:41;4.25;;;2.30;;
33104;SDS011;19476;51.448;6.674;2023-07-13T09:10:14;4.63;;;2.13;;
33104;SDS011;19476;51.448;6.674;2023-07-13T09:12:49;5.65;;;2.60;;
33104;SDS011;19476;51.448;6.674;2023-07-13T09:15:27;4.82;;;1.90;;
33104;SDS011;19476;51.448;6.674;2023-07-13T09:17:57;6.88;;;2.78;;
33104;SDS011;19476;51.448;6.674;2023-07-13T09:20:37;4.35;;;2.30;;
33104;SDS011;19476;51.448;6.674;2023-07-13T09:23:14;5.93;;;2.38;;
33104;SDS011;19476;51.448;6.674;2023-07-13T09:25:43;4.15;;;2.42;;
33104;SDS011;19476;51.448;6.674;2023-07-13T09:31:06;3.92;;;1.90;;
33104;SDS011;19476;51.448;6.674;2023-07-13T09:33:50;9.98;;;2.92;;
33104;SDS011;19476;51.448;6.674;2023-07-13T09:38:44;5.80;;;2.22;;
33104;SDS011;19476;51.448;6.674;2023-07-13T09:46:37;4.40;;;2.00;;
33104;SDS011;19476;51.448;6.674;2023-07-13T09:49:04;6.05;;;1.80;;
33104;SDS011;19476;51.448;6.674;2023-07-13T09:51:30;3.35;;;1.95;;
33104;SDS011;19476;51.448;6.674;2023-07-13T09:53:56;5.00;;;1.92;;
33104;SDS011;19476;51.448;6.674;2023-07-13T09:56:23;3.03;;;1.90;;
33104;SDS011;19476;51.448;6.674;2023-07-13T09:58:52;5.00;;;2.15;;
33104;SDS011;19476;51.448;6.674;2023-07-13T10:01:39;5.45;;;2.38;;
33104;SDS011;19476;51.448;6.674;2023-07-13T10:04:13;5.05;;;2.15;;
33104;SDS011;19476;51.448;6.674;2023-07-13T10:06:43;7.65;;;2.38;;
33104;SDS011;19476;51.448;6.674;2023-07-13T10:09:09;8.02;;;1.85;;
33104;SDS011;19476;51.448;6.674;2023-07-13T10:11:39;6.55;;;1.80;;
33104;SDS011;19476;51.448;6.674;2023-07-13T10:14:11;5.07;;;2.28;;
33104;SDS011;19476;51.448;6.674;2023-07-13T10:16:44;7.10;;;1.67;;
33104;SDS011;19476;51.448;6.674;2023-07-13T10:21:47;4.82;;;2.00;;
33104;SDS011;19476;51.448;6.674;2023-07-13T10:24:20;3.58;;;1.83;;
33104;SDS011;19476;51.448;6.674;2023-07-13T10:26:52;5.03;;;1.83;;
33104;SDS011;19476;51.448;6.674;2023-07-13T10:29:30;7.43;;;2.00;;
33104;SDS011;19476;51.448;6.674;2023-07-13T10:32:01;5.15;;;1.50;;
33104;SDS011;19476;51.448;6.674;2023-07-13T10:34:33;3.25;;;1.40;;
33104;SDS011;19476;51.448;6.674;2023-07-13T10:36:59;5.45;;;1.83;;
33104;SDS011;19476;51.448;6.674;2023-07-13T10:39:27;5.05;;;1.70;;
33104;SDS011;19476;51.448;6.674;2023-07-13T10:41:55;4.85;;;1.38;;
33104;SDS011;19476;51.448;6.674;2023-07-13T10:44:30;3.30;;;1.67;;
33104;SDS011;19476;51.448;6.674;2023-07-13T10:46:59;4.68;;;1.42;;
33104;SDS011;19476;51.448;6.674;2023-07-13T10:49:28;5.55;;;1.83;;
33104;SDS011;19476;51.448;6.674;2023-07-13T10:52:00;2.90;;;1.42;;
33104;SDS011;19476;51.448;6.674;2023-07-13T10:57:07;2.20;;;1.17;;
33104;SDS011;19476;51.448;6.674;2023-07-13T10:59:49;5.90;;;1.85;;
33104;SDS011;19476;51.448;6.674;2023-07-13T11:02:41;5.70;;;1.98;;
33104;SDS011;19476;51.448;6.674;2023-07-13T11:05:40;3.22;;;1.40;;
33104;SDS011;19476;51.448;6.674;2023-07-13T11:08:13;2.95;;;1.52;;
33104;SDS011;19476;51.448;6.674;2023-07-13T11:10:47;4.32;;;1.30;;
33104;SDS011;19476;51.448;6.674;2023-07-13T11:16:14;5.72;;;1.75;;
33104;SDS011;19476;51.448;6.674;2023-07-13T11:22:03;4.15;;;1.48;;
33104;SDS011;19476;51.448;6.674;2023-07-13T11:24:47;4.10;;;1.40;;
33104;SDS011;19476;51.448;6.674;2023-07-13T11:27:52;3.60;;;1.60;;
33104;SDS011;19476;51.448;6.674;2023-07-13T11:38:55;3.25;;;1.10;;
33104;SDS011;19476;51.448;6.674;2023-07-13T11:41:45;3.72;;;1.10;;
33104;SDS011;19476;51.448;6.674;2023-07-13T11:44:22;2.88;;;0.93;;
33104;SDS011;19476;51.448;6.674;2023-07-13T11:46:50;3.83;;;1.27;;
33104;SDS011;19476;51.448;6.674;2023-07-13T11:49:18;4.35;;;1.38;;
33104;SDS011;19476;51.448;6.674;2023-07-13T11:51:46;2.88;;;1.40;;
33104;SDS011;19476;51.448;6.674;2023-07-13T11:54:26;4.03;;;1.15;;
33104;SDS011;19476;51.448;6.674;2023-07-13T11:56:58;6.30;;;1.58;;
33104;SDS011;19476;51.448;6.674;2023-07-13T11:59:31;2.28;;;0.98;;
33104;SDS011;19476;51.448;6.674;2023-07-13T12:01:58;4.03;;;1.33;;
33104;SDS011;19476;51.448;6.674;2023-07-13T12:04:28;4.45;;;1.20;;
33104;SDS011;19476;51.448;6.674;2023-07-13T12:10:02;4.82;;;1.67;;
33104;SDS011;19476;51.448;6.674;2023-07-13T12:12:53;5.07;;;1.40;;
33104;SDS011;19476;51.448;6.674;2023-07-13T12:15:19;4.40;;;1.50;;
33104;SDS011;19476;51.448;6.674;2023-07-13T12:17:49;2.92;;;1.10;;
33104;SDS011;19476;51.448;6.674;2023-07-13T12:20:20;2.15;;;1.10;;
33104;SDS011;19476;51.448;6.674;2023-07-13T12:23:00;3.65;;;1.52;;
33104;SDS011;19476;51.448;6.674;2023-07-13T12:25:27;3.75;;;1.23;;
33104;SDS011;19476;51.448;6.674;2023-07-13T12:27:54;2.95;;;1.13;;
33104;SDS011;19476;51.448;6.674;2023-07-13T12:30:31;3.25;;;1.08;;
33104;SDS011;19476;51.448;6.674;2023-07-13T12:33:02;3.53;;;1.02;;
33104;SDS011;19476;51.448;6.674;2023-07-13T12:35:39;4.68;;;1.40;;
33104;SDS011;19476;51.448;6.674;2023-07-13T12:38:10;2.95;;;1.00;;
33104;SDS011;19476;51.448;6.674;2023-07-13T12:40:37;3.28;;;1.13;;
33104;SDS011;19476;51.448;6.674;2023-07-13T12:43:05;2.58;;;1.10;;
33104;SDS011;19476;51.448;6.674;2023-07-13T12:45:40;4.15;;;1.10;;
33104;SDS011;19476;51.448;6.674;2023-07-13T12:48:43;2.55;;;1.20;;
33104;SDS011;19476;51.448;6.674;2023-07-13T12:51:13;2.63;;;0.80;;
33104;SDS011;19476;51.448;6.674;2023-07-13T12:53:42;3.20;;;1.10;;
33104;SDS011;19476;51.448;6.674;2023-07-13T12:56:16;2.70;;;1.40;;
33104;SDS011;19476;51.448;6.674;2023-07-13T12:58:46;2.92;;;1.10;;
33104;SDS011;19476;51.448;6.674;2023-07-13T13:01:15;5.80;;;1.20;;
33104;SDS011;19476;51.448;6.674;2023-07-13T13:03:46;2.97;;;1.08;;
33104;SDS011;19476;51.448;6.674;2023-07-13T13:09:38;3.08;;;1.20;;
33104;SDS011;19476;51.448;6.674;2023-07-13T13:12:07;2.17;;;1.20;;
33104;SDS011;19476;51.448;6.674;2023-07-13T13:14:33;3.03;;;1.10;;
33104;SDS011;19476;51.448;6.674;2023-07-13T13:16:58;3.15;;;0.80;;
33104;SDS011;19476;51.448;6.674;2023-07-13T13:19:27;2.97;;;1.00;;
33104;SDS011;19476;51.448;6.674;2023-07-13T13:21:54;3.05;;;0.98;;
33104;SDS011;19476;51.448;6.674;2023-07-13T13:24:22;2.30;;;1.17;;
33104;SDS011;19476;51.448;6.674;2023-07-13T13:26:51;1.65;;;1.05;;
33104;SDS011;19476;51.448;6.674;2023-07-13T13:29:22;2.72;;;1.00;;
33104;SDS011;19476;51.448;6.674;2023-07-13T13:31:49;3.53;;;1.05;;
33104;SDS011;19476;51.448;6.674;2023-07-13T13:34:16;4.97;;;1.17;;
33104;SDS011;19476;51.448;6.674;2023-07-13T13:36:43;2.42;;;1.10;;
33104;SDS011;19476;51.448;6.674;2023-07-13T13:41:47;3.42;;;1.10;;
33104;SDS011;19476;51.448;6.674;2023-07-13T13:44:14;1.92;;;1.15;;
33104;SDS011;19476;51.448;6.674;2023-07-13T13:46:44;3.58;;;1.40;;
33104;SDS011;19476;51.448;6.674;2023-07-13T13:49:16;3.17;;;1.30;;
33104;SDS011;19476;51.448;6.674;2023-07-13T13:51:43;2.75;;;1.33;;
33104;SDS011;19476;51.448;6.674;2023-07-13T13:54:13;2.33;;;0.90;;
33104;SDS011;19476;51.448;6.674;2023-07-13T13:56:44;2.50;;;0.85;;
33104;SDS011;19476;51.448;6.674;2023-07-13T13:59:12;5.18;;;1.30;;
33104;SDS011;19476;51.448;6.674;2023-07-13T14:01:39;3.75;;;1.25;;
33104;SDS011;19476;51.448;6.674;2023-07-13T14:04:08;3.28;;;1.50;;
33104;SDS011;19476;51.448;6.674;2023-07-13T14:06:41;2.58;;;1.23;;
33104;SDS011;19476;51.448;6.674;2023-07-13T14:09:08;4.90;;;1.30;;
33104;SDS011;19476;51.448;6.674;2023-07-13T14:11:37;3.97;;;1.48;;
33104;SDS011;19476;51.448;6.674;2023-07-13T14:14:08;4.82;;;1.38;;
33104;SDS011;19476;51.448;6.674;2023-07-13T14:16:45;3.10;;;1.17;;
33104;SDS011;19476;51.448;6.674;2023-07-13T14:19:18;3.00;;;1.65;;
33104;SDS011;19476;51.448;6.674;2023-07-13T14:21:44;5.78;;;1.00;;
33104;SDS011;19476;51.448;6.674;2023-07-13T14:24:09;2.92;;;1.40;;
33104;SDS011;19476;51.448;6.674;2023-07-13T14:26:36;2.75;;;1.50;;
33104;SDS011;19476;51.448;6.674;2023-07-13T14:31:42;2.60;;;1.42;;
33104;SDS011;19476;51.448;6.674;2023-07-13T14:34:11;2.20;;;1.30;;
33104;SDS011;19476;51.448;6.674;2023-07-13T14:36:43;2.28;;;1.33;;
33104;SDS011;19476;51.448;6.674;2023-07-13T14:39:15;3.17;;;1.50;;
33104;SDS011;19476;51.448;6.674;2023-07-13T14:41:42;3.13;;;1.60;;
33104;SDS011;19476;51.448;6.674;2023-07-13T14:44:10;2.10;;;1.17;;
33104;SDS011;19476;51.448;6.674;2023-07-13T14:46:40;5.57;;;1.48;;
33104;SDS011;19476;51.448;6.674;2023-07-13T14:49:13;2.42;;;1.25;;
33104;SDS011;19476;51.448;6.674;2023-07-13T14:51:46;3.13;;;1.10;;
33104;SDS011;19476;51.448;6.674;2023-07-13T14:54:12;2.80;;;1.30;;
33104;SDS011;19476;51.448;6.674;2023-07-13T14:56:38;1.80;;;1.08;;
33104;SDS011;19476;51.448;6.674;2023-07-13T14:59:04;2.65;;;1.13;;
33104;SDS011;19476;51.448;6.674;2023-07-13T15:01:36;2.35;;;1.20;;
33104;SDS011;19476;51.448;6.674;2023-07-13T15:04:04;2.67;;;1.40;;
33104;SDS011;19476;51.448;6.674;2023-07-13T15:06:30;3.65;;;1.50;;
33104;SDS011;19476;51.448;6.674;2023-07-13T15:09:15;4.20;;;1.48;;
33104;SDS011;19476;51.448;6.674;2023-07-13T15:11:41;3.05;;;1.10;;
33104;SDS011;19476;51.448;6.674;2023-07-13T15:14:08;2.95;;;0.90;;
33104;SDS011;19476;51.448;6.674;2023-07-13T15:16:36;1.42;;;0.77;;
33104;SDS011;19476;51.448;6.674;2023-07-13T15:19:04;3.25;;;1.02;;
33104;SDS011;19476;51.448;6.674;2023-07-13T15:21:31;2.20;;;0.88;;
33104;SDS011;19476;51.448;6.674;2023-07-13T15:23:59;3.10;;;0.88;;
33104;SDS011;19476;51.448;6.674;2023-07-13T15:26:26;2.75;;;1.13;;
33104;SDS011;19476;51.448;6.674;2023-07-13T15:28:51;2.13;;;1.08;;
33104;SDS011;19476;51.448;6.674;2023-07-13T15:31:19;1.67;;;0.85;;
33104;SDS011;19476;51.448;6.674;2023-07-13T15:33:52;2.67;;;1.00;;
33104;SDS011;19476;51.448;6.674;2023-07-13T15:36:20;1.92;;;1.00;;
33104;SDS011;19476;51.448;6.674;2023-07-13T15:38:47;2.67;;;1.27;;
33104;SDS011;19476;51.448;6.674;2023-07-13T15:41:25;2.55;;;1.13;;
33104;SDS011;19476;51.448;6.674;2023-07-13T15:43:53;1.48;;;0.98;;
33104;SDS011;19476;51.448;6.674;2023-07-13T15:46:23;4.57;;;1.15;;
33104;SDS011;19476;51.448;6.674;2023-07-13T15:48:50;2.40;;;1.00;;
33104;SDS011;19476;51.448;6.674;2023-07-13T15:51:23;2.63;;;1.25;;
33104;SDS011;19476;51.448;6.674;2023-07-13T15:53:59;2.35;;;0.90;;
33104;SDS011;19476;51.448;6.674;2023-07-13T15:56:32;2.92;;;0.90;;
33104;SDS011;19476;51.448;6.674;2023-07-13T15:59:00;3.70;;;1.00;;